Time;durP1;ratioP1;P1;durP2;ratioP2;P2;SDS_P1;SDS_P2;PMS_P1;PMS_P2;Temp;Humidity;BMP_temperature;BMP_pressure;BME280_temperature;BME280_humidity;BME280_pressure;Samples;Min_cycle;Max_cycle;Signal;HPM_P1;HPM_P2
2022/06/04 00:01:44;;;;;;;3.65;1.88;;;;;;;14.43;46.90;101142.38;5100393;28;20081;-67
2022/06/04 00:04:12;;;;;;;5.53;2.13;;;;;;;14.48;46.86;101154.31;5100168;28;20071;-67
2022/06/04 00:06:40;;;;;;;4.57;2.40;;;;;;;14.47;47.01;101149.94;5099233;28;20101;-67
2022/06/04 00:09:08;;;;;;;3.75;2.20;;;;;;;14.49;47.29;101149.75;5098195;28;20040;-68
2022/06/04 00:17:07;;;;;;;3.42;2.08;;;;;;;14.41;47.21;101142.53;5098566;28;20044;-67
2022/06/04 00:19:33;;;;;;;6.22;2.00;;;;;;;14.31;47.53;101147.28;5099770;28;20127;-67
2022/06/04 00:22:02;;;;;;;5.22;2.20;;;;;;;14.28;47.78;101148.47;5100855;28;20056;-67
2022/06/04 00:24:29;;;;;;;3.20;1.90;;;;;;;14.25;48.04;101145.28;5099990;28;20055;-67
2022/06/04 00:26:56;;;;;;;5.43;2.40;;;;;;;14.21;48.26;101136.69;5099427;28;20090;-67
2022/06/04 00:29:22;;;;;;;3.65;1.90;;;;;;;14.26;48.32;101134.31;5100129;28;20070;-68
2022/06/04 00:31:51;;;;;;;3.75;2.40;;;;;;;14.21;48.67;101131.28;5099610;28;20083;-67
2022/06/04 00:34:18;;;;;;;5.90;2.53;;;;;;;14.21;48.83;101134.00;5101893;28;20111;-67
2022/06/04 00:36:45;;;;;;;5.82;2.58;;;;;;;14.12;49.20;101139.63;5101651;28;20099;-66
2022/06/04 00:39:11;;;;;;;4.65;2.28;;;;;;;14.02;49.49;101123.63;5098576;28;20403;-67
2022/06/04 00:41:56;;;;;;;6.13;2.47;;;;;;;14.06;49.61;101139.28;5097916;28;20078;-67
2022/06/04 00:44:32;;;;;;;6.22;2.70;;;;;;;13.98;49.66;101141.16;5100739;28;20131;-67
2022/06/04 00:47:12;;;;;;;7.53;2.20;;;;;;;14.04;49.90;101135.06;5100234;28;20048;-67
2022/06/04 00:49:39;;;;;;;5.97;2.90;;;;;;;14.03;49.98;101128.81;5100082;28;20072;-67
2022/06/04 00:52:09;;;;;;;5.82;2.78;;;;;;;13.97;50.10;101125.97;5100290;28;20456;-67
2022/06/04 00:54:36;;;;;;;6.80;2.30;;;;;;;13.95;50.01;101125.31;5096813;28;20243;-67
2022/06/04 00:57:37;;;;;;;7.63;2.70;;;;;;;13.98;50.17;101127.69;5098359;28;20048;-67
2022/06/04 01:00:24;;;;;;;7.25;2.50;;;;;;;13.96;50.26;101127.84;5099165;28;20052;-67
2022/06/04 01:03:08;;;;;;;6.88;2.53;;;;;;;14.01;50.24;101130.00;5097687;28;20043;-67
2022/06/04 01:09:21;;;;;;;11.45;2.47;;;;;;;13.86;50.56;101134.44;5098294;28;20467;-67
2022/06/04 01:12:10;;;;;;;10.45;2.85;;;;;;;13.87;50.60;101134.25;5102832;28;20052;-66
2022/06/04 01:15:11;;;;;;;6.00;2.58;;;;;;;13.88;50.71;101129.72;5102179;28;20044;-67
2022/06/04 01:18:00;;;;;;;4.07;2.28;;;;;;;13.89;50.82;101131.41;5098605;28;20460;-67
2022/06/04 01:20:32;;;;;;;7.78;2.55;;;;;;;13.96;50.80;101137.78;5098777;28;20470;-67
2022/06/04 01:23:08;;;;;;;4.40;2.60;;;;;;;13.91;51.06;101132.94;5097032;28;20119;-67
2022/06/04 01:26:16;;;;;;;5.00;2.20;;;;;;;13.89;51.31;101132.25;5098568;28;20064;-67
2022/06/04 01:29:06;;;;;;;6.03;2.80;;;;;;;13.83;51.69;101130.22;5086372;28;20076;-66
2022/06/04 01:31:41;;;;;;;5.20;2.47;;;;;;;13.86;51.66;101147.94;5100912;28;20047;-66
2022/06/04 01:34:12;;;;;;;7.72;2.75;;;;;;;13.86;51.59;101139.84;5100332;28;20071;-67
2022/06/04 01:36:45;;;;;;;5.97;2.95;;;;;;;13.85;51.68;101141.69;5099035;28;20074;-66
2022/06/04 01:39:19;;;;;;;7.53;2.22;;;;;;;13.80;51.89;101133.25;5097689;28;20445;-66
2022/06/04 01:41:53;;;;;;;6.32;2.65;;;;;;;13.67;52.29;101128.38;5099145;28;20055;-67
2022/06/04 01:44:37;;;;;;;9.65;2.85;;;;;;;13.63;52.62;101127.03;5098153;28;20054;-67
2022/06/04 01:47:05;;;;;;;6.68;3.00;;;;;;;13.52;52.83;101119.28;5098298;28;20135;-67
2022/06/04 01:49:48;;;;;;;7.65;2.88;;;;;;;13.50;53.13;101116.78;5099030;28;20054;-67
2022/06/04 01:52:28;;;;;;;7.03;2.53;;;;;;;13.50;53.47;101116.78;5099721;28;20519;-67
2022/06/04 01:55:06;;;;;;;4.95;2.35;;;;;;;13.44;53.60;101112.06;5097831;28;20102;-67
2022/06/04 01:57:56;;;;;;;4.38;2.35;;;;;;;13.42;53.74;101121.31;5099122;28;20076;-67
2022/06/04 02:00:28;;;;;;;5.07;2.53;;;;;;;13.38;53.91;101123.50;5100435;28;20553;-67
2022/06/04 02:03:05;;;;;;;5.05;2.45;;;;;;;13.33;53.96;101123.19;5099065;28;20056;-67
2022/06/04 02:05:41;;;;;;;7.30;2.63;;;;;;;13.39;53.81;101124.34;5097954;28;20075;-67
2022/06/04 02:08:12;;;;;;;7.85;2.85;;;;;;;13.39;53.96;101124.34;5097999;28;20112;-66
2022/06/04 02:10:44;;;;;;;5.40;2.80;;;;;;;13.39;54.05;101127.91;5097439;28;20094;-66
2022/06/04 02:13:14;;;;;;;3.63;2.42;;;;;;;13.40;54.25;101132.28;5098044;28;20428;-67
2022/06/04 02:16:03;;;;;;;8.15;3.40;;;;;;;13.35;54.14;101130.09;5098714;28;20484;-66
2022/06/04 02:18:29;;;;;;;6.05;3.65;;;;;;;13.45;53.76;101127.19;5096960;28;20044;-67
2022/06/04 02:20:56;;;;;;;9.45;2.80;;;;;;;13.38;54.21;101128.06;5097625;28;20055;-67
2022/06/04 02:23:23;;;;;;;7.10;2.53;;;;;;;13.42;54.24;101129.41;5095898;28;20087;-67
2022/06/04 02:25:51;;;;;;;7.30;3.05;;;;;;;13.39;53.89;101127.03;5098902;28;20105;-67
2022/06/04 02:28:18;;;;;;;6.75;3.22;;;;;;;13.39;54.11;101124.34;5098679;28;20052;-67
2022/06/04 02:31:09;;;;;;;7.85;2.45;;;;;;;13.24;54.30;101122.31;5097922;28;20076;-66
2022/06/04 02:33:49;;;;;;;5.18;2.63;;;;;;;13.30;54.20;101128.91;5096967;28;20536;-67
2022/06/04 02:36:30;;;;;;;4.63;2.65;;;;;;;13.30;54.10;101132.44;5103137;28;20048;-68
2022/06/04 02:39:13;;;;;;;5.53;2.80;;;;;;;13.29;53.94;101128.06;5100730;28;20044;-67
2022/06/04 02:42:05;;;;;;;5.03;2.58;;;;;;;13.35;54.24;101118.44;5102731;28;20479;-66
2022/06/04 02:44:39;;;;;;;4.80;2.30;;;;;;;13.26;54.20;101123.00;5053560;28;20086;-67
2022/06/04 02:47:14;;;;;;;7.18;2.60;;;;;;;13.31;54.10;101127.88;5101007;28;20112;-67
2022/06/04 02:49:43;;;;;;;7.38;3.55;;;;;;;13.22;54.09;101128.91;5100022;28;20075;-67
2022/06/04 02:52:14;;;;;;;6.65;2.67;;;;;;;13.12;54.34;101134.47;5100989;28;20082;-67
2022/06/04 02:54:46;;;;;;;5.05;2.83;;;;;;;13.18;54.28;101133.78;5102121;28;20083;-67
2022/06/04 02:57:14;;;;;;;7.88;2.80;;;;;;;13.15;54.03;101126.03;5100206;28;20497;-66
2022/06/04 02:59:43;;;;;;;4.63;2.40;;;;;;;13.14;54.10;101132.41;5099541;28;20472;-67
2022/06/04 03:02:13;;;;;;;6.55;2.40;;;;;;;13.13;53.80;101130.75;5098966;28;20136;-66
2022/06/04 03:04:42;;;;;;;5.63;2.63;;;;;;;13.18;53.89;101135.63;5102840;28;20051;-67
2022/06/04 03:07:09;;;;;;;10.32;2.75;;;;;;;13.17;54.00;101142.03;5101293;28;20071;-67
2022/06/04 03:09:38;;;;;;;5.40;2.30;;;;;;;13.14;53.86;101153.97;5099988;28;20047;-67
2022/06/04 03:12:06;;;;;;;7.35;2.70;;;;;;;13.17;53.88;101153.63;5097672;28;20048;-66
2022/06/04 03:14:32;;;;;;;6.72;2.70;;;;;;;13.12;54.18;101147.94;5099851;28;20075;-67
2022/06/04 03:16:59;;;;;;;10.82;3.03;;;;;;;13.04;54.96;101148.75;5101774;28;20051;-67
2022/06/04 03:19:26;;;;;;;6.57;2.47;;;;;;;13.00;55.10;101146.53;5102885;28;20135;-66
2022/06/04 03:21:52;;;;;;;12.27;2.88;;;;;;;12.87;55.11;101147.88;5100910;28;20062;-67
2022/06/04 03:24:19;;;;;;;4.75;2.10;;;;;;;12.88;54.80;101138.78;5102837;28;20079;-67
2022/06/04 03:26:45;;;;;;;6.22;2.30;;;;;;;12.89;54.40;101142.31;5103413;28;20130;-66
2022/06/04 03:29:12;;;;;;;3.92;2.33;;;;;;;12.85;54.71;101146.34;5100423;28;20083;-67
2022/06/04 03:31:39;;;;;;;6.72;2.60;;;;;;;12.92;54.15;101143.84;5101672;28;20071;-66
2022/06/04 03:34:05;;;;;;;7.32;2.53;;;;;;;12.93;54.33;101151.75;5100293;28;20465;-67
2022/06/04 03:36:33;;;;;;;2.78;2.03;;;;;;;12.89;54.09;101158.47;5102918;28;20072;-67
2022/06/04 03:39:00;;;;;;;6.43;2.92;;;;;;;12.90;53.52;101157.47;5101450;28;20063;-67
2022/06/04 03:41:27;;;;;;;9.13;2.45;;;;;;;12.87;53.45;101163.19;5101685;28;20052;-67
2022/06/04 03:43:54;;;;;;;9.20;2.63;;;;;;;12.79;53.43;101171.25;5101197;28;20047;-67
2022/06/04 03:46:26;;;;;;;6.40;2.58;;;;;;;12.72;53.56;101164.78;5101569;28;20222;-66
2022/06/04 03:48:57;;;;;;;4.35;2.30;;;;;;;12.65;53.66;101161.91;5099324;28;20384;-67
2022/06/04 03:51:26;;;;;;;3.70;2.00;;;;;;;12.67;53.84;101170.69;5101028;28;20066;-67
2022/06/04 03:53:53;;;;;;;3.53;2.05;;;;;;;12.68;53.68;101175.03;5100808;28;20105;-67
2022/06/04 03:56:20;;;;;;;8.82;2.35;;;;;;;12.71;53.61;101185.50;5099253;28;20134;-67
2022/06/04 03:58:46;;;;;;;6.97;2.25;;;;;;;12.76;53.47;101177.78;5099005;28;20044;-67
2022/06/04 04:01:16;;;;;;;5.97;2.63;;;;;;;12.75;53.20;101178.81;5099820;28;20071;-67
2022/06/04 04:03:43;;;;;;;4.80;2.63;;;;;;;12.69;52.98;101171.34;5097941;28;20122;-67
2022/06/04 04:06:16;;;;;;;6.10;2.33;;;;;;;12.73;53.27;101169.16;5099626;28;20510;-67
2022/06/04 04:08:43;;;;;;;5.78;2.55;;;;;;;12.71;52.91;101163.97;5098700;28;20086;-67
2022/06/04 04:11:14;;;;;;;7.63;2.42;;;;;;;12.70;52.81;101173.03;5099706;28;20135;-67
2022/06/04 04:13:41;;;;;;;6.10;2.63;;;;;;;12.68;52.73;101175.03;5101807;28;20460;-66
2022/06/04 04:16:09;;;;;;;6.60;2.58;;;;;;;12.67;52.54;101173.38;5101895;28;20044;-66
2022/06/04 04:18:36;;;;;;;7.25;2.53;;;;;;;12.71;52.68;101173.88;5099795;28;20459;-67
2022/06/04 04:21:06;;;;;;;6.80;2.50;;;;;;;12.76;52.57;101171.56;5099331;28;20138;-67
2022/06/04 04:23:33;;;;;;;7.28;2.35;;;;;;;12.55;52.64;101170.09;5099949;28;20590;-67
2022/06/04 04:26:01;;;;;;;7.90;2.50;;;;;;;12.55;52.88;101174.66;5099886;28;20130;-67
2022/06/04 04:28:27;;;;;;;5.00;2.60;;;;;;;12.58;52.62;101175.16;5098982;28;20104;-66
2022/06/04 04:30:54;;;;;;;4.22;2.30;;;;;;;12.58;52.78;101174.34;5100138;28;20047;-67
2022/06/04 04:33:21;;;;;;;4.65;2.17;;;;;;;12.65;52.90;101173.50;5098564;28;20051;-66
2022/06/04 04:35:48;;;;;;;7.45;2.63;;;;;;;12.68;52.68;101168.81;5100155;28;20142;-67
2022/06/04 04:38:18;;;;;;;5.10;2.33;;;;;;;12.71;52.44;101163.97;5100727;28;20052;-66
2022/06/04 04:40:45;;;;;;;9.27;2.33;;;;;;;12.56;52.11;101166.44;5099212;28;20094;-66
2022/06/04 04:43:12;;;;;;;7.53;2.33;;;;;;;12.57;52.29;101168.13;5099711;28;20051;-67
2022/06/04 04:45:39;;;;;;;7.45;3.15;;;;;;;12.57;51.90;101168.13;5099145;28;20051;-66
2022/06/04 04:48:06;;;;;;;6.38;2.45;;;;;;;12.58;52.12;101179.72;5096890;28;20151;-67
2022/06/04 04:50:36;;;;;;;3.78;2.20;;;;;;;12.62;51.85;101181.06;5099244;28;20084;-67
2022/06/04 04:53:06;;;;;;;4.28;2.38;;;;;;;12.75;51.79;101178.81;5100012;28;20404;-66
2022/06/04 04:55:33;;;;;;;5.65;2.42;;;;;;;12.82;51.26;101176.31;5099577;28;20048;-67
2022/06/04 04:58:01;;;;;;;6.78;2.15;;;;;;;12.94;51.12;101176.81;5098428;28;20105;-67
2022/06/04 05:00:28;;;;;;;6.78;2.35;;;;;;;12.99;50.71;101182.56;5100328;28;20048;-67
2022/06/04 05:02:57;;;;;;;4.40;2.35;;;;;;;13.07;50.49;101187.97;5098110;28;20056;-67
2022/06/04 05:05:23;;;;;;;15.93;2.70;;;;;;;13.12;50.29;101185.63;5100845;28;20056;-67
2022/06/04 05:07:50;;;;;;;6.60;2.35;;;;;;;13.03;50.06;101194.69;5100667;28;20083;-67
2022/06/04 05:10:17;;;;;;;6.97;2.38;;;;;;;13.03;49.98;101192.00;5101818;28;20131;-67
2022/06/04 05:12:44;;;;;;;5.60;2.58;;;;;;;12.77;50.34;101195.66;5098935;28;20052;-66
2022/06/04 05:15:11;;;;;;;7.88;2.35;;;;;;;12.76;50.81;101193.94;5100487;28;20419;-67
2022/06/04 05:17:37;;;;;;;8.25;2.10;;;;;;;12.81;50.81;101198.84;5099234;28;20502;-67
2022/06/04 05:20:04;;;;;;;8.57;2.75;;;;;;;12.94;50.44;101191.16;5099769;28;20044;-67
2022/06/04 05:22:31;;;;;;;5.38;2.40;;;;;;;12.92;49.82;101190.47;5097917;28;20105;-67
2022/06/04 05:24:58;;;;;;;6.00;1.92;;;;;;;13.04;50.19;101191.00;5099848;28;20093;-67
2022/06/04 05:27:24;;;;;;;7.40;2.10;;;;;;;12.95;50.04;101190.13;5096819;28;20083;-68
2022/06/04 05:29:52;;;;;;;11.38;2.50;;;;;;;12.79;50.25;101198.16;5097297;28;20471;-67
2022/06/04 05:32:19;;;;;;;6.93;2.70;;;;;;;12.80;50.32;101187.25;5098148;28;20068;-68
2022/06/04 05:34:46;;;;;;;9.88;2.40;;;;;;;12.80;50.42;101187.25;5096588;28;20052;-68
2022/06/04 05:37:12;;;;;;;9.77;2.70;;;;;;;12.93;50.29;101188.63;5097645;28;20166;-68
2022/06/04 05:39:39;;;;;;;7.78;2.20;;;;;;;13.03;50.05;101175.84;5097426;28;20101;-68
2022/06/04 05:42:06;;;;;;;5.85;2.30;;;;;;;13.17;50.09;101191.34;5095980;28;20044;-68
2022/06/04 05:44:33;;;;;;;10.88;2.30;;;;;;;13.21;49.59;101187.31;5097564;28;20044;-68
2022/06/04 05:47:00;;;;;;;7.95;2.30;;;;;;;13.49;49.65;101195.09;5096099;28;20457;-68
2022/06/04 05:49:27;;;;;;;6.57;2.25;;;;;;;13.57;48.52;101190.56;5097740;28;20051;-68
2022/06/04 05:51:54;;;;;;;6.38;2.22;;;;;;;13.83;48.42;101197.66;5097872;28;20556;-68
2022/06/04 05:54:20;;;;;;;5.43;2.35;;;;;;;13.81;48.11;101189.75;5097603;28;20541;-67
2022/06/04 05:56:49;;;;;;;11.73;2.47;;;;;;;13.72;48.27;101200.66;5098513;28;20079;-68
2022/06/04 05:59:19;;;;;;;8.85;2.38;;;;;;;13.68;48.32;101197.47;5097851;28;20040;-68
2022/06/04 06:01:46;;;;;;;5.80;2.03;;;;;;;13.68;48.84;101205.56;5097363;28;20457;-68
2022/06/04 06:04:15;;;;;;;4.60;2.45;;;;;;;13.49;48.74;101205.88;5097865;28;20055;-68
2022/06/04 06:06:45;;;;;;;5.03;2.10;;;;;;;13.52;48.59;101192.91;5098848;28;20076;-68
2022/06/04 06:09:15;;;;;;;7.45;2.60;;;;;;;13.66;48.52;101207.56;5099722;28;20051;-68
2022/06/04 06:11:43;;;;;;;8.23;3.55;;;;;;;13.70;47.96;101214.31;5102276;28;20044;-68
2022/06/04 06:14:11;;;;;;;9.48;3.30;;;;;;;13.70;48.44;101213.47;5103384;28;20087;-68
2022/06/04 06:16:42;;;;;;;5.47;2.88;;;;;;;13.88;48.15;101214.19;5102952;28;20142;-68
2022/06/04 06:19:10;;;;;;;8.80;4.32;;;;;;;14.02;47.82;101213.47;5102365;28;20052;-67
2022/06/04 06:21:36;;;;;;;4.22;2.55;;;;;;;13.90;47.36;101224.78;5101582;28;20491;-69
2022/06/04 06:24:05;;;;;;;8.43;2.47;;;;;;;13.85;47.64;101222.59;5101055;28;20094;-68
2022/06/04 06:26:35;;;;;;;7.00;2.70;;;;;;;13.97;47.22;101225.78;5100145;28;20082;-68
2022/06/04 06:29:03;;;;;;;13.90;2.85;;;;;;;14.34;47.23;101218.97;5099636;28;20452;-69
2022/06/04 06:31:34;;;;;;;8.23;2.55;;;;;;;14.61;46.31;101223.97;5101519;28;20044;-68
2022/06/04 06:34:01;;;;;;;4.22;2.05;;;;;;;14.79;45.96;101218.34;5100752;28;20055;-68
2022/06/04 06:36:28;;;;;;;8.93;2.58;;;;;;;14.73;45.68;101219.03;5101463;28;20071;-68
2022/06/04 06:38:55;;;;;;;5.60;2.75;;;;;;;14.70;45.50;101224.75;5100189;28;20048;-68
2022/06/04 06:41:23;;;;;;;5.38;2.55;;;;;;;14.75;45.53;101217.84;5102119;28;20079;-68
2022/06/04 06:43:50;;;;;;;12.77;2.80;;;;;;;14.66;45.43;101229.66;5100701;28;20085;-69
2022/06/04 06:46:21;;;;;;;7.05;3.00;;;;;;;14.63;45.05;101234.56;5100585;28;20071;-69
2022/06/04 06:48:51;;;;;;;6.75;2.78;;;;;;;14.68;45.03;101240.31;5099552;28;20385;-68
2022/06/04 06:51:34;;;;;;;7.38;2.65;;;;;;;14.54;45.24;101233.78;5100659;28;20076;-68
2022/06/04 06:54:00;;;;;;;7.05;3.10;;;;;;;14.58;45.10;101239.66;5099518;28;20493;-68
2022/06/04 06:56:31;;;;;;;7.65;2.95;;;;;;;14.65;44.75;101238.78;5099911;28;20464;-69
2022/06/04 06:58:59;;;;;;;7.22;2.88;;;;;;;14.72;44.76;101249.75;5100154;28;20076;-68
2022/06/04 07:01:26;;;;;;;5.70;3.10;;;;;;;14.75;44.31;101247.56;5100542;28;20079;-70
2022/06/04 07:03:55;;;;;;;7.47;3.17;;;;;;;14.93;44.17;101241.91;5102036;28;20048;-67
2022/06/04 07:06:35;;;;;;;12.60;3.13;;;;;;;14.92;43.92;101242.09;5100785;28;20055;-69
2022/06/04 07:09:05;;;;;;;6.78;3.45;;;;;;;15.12;43.27;101247.88;5102269;28;20056;-67
2022/06/04 07:11:32;;;;;;;11.15;2.88;;;;;;;15.27;42.90;101256.94;5101030;28;20043;-68
2022/06/04 07:13:58;;;;;;;4.63;3.03;;;;;;;15.11;43.08;101260.56;5099325;28;20051;-69
2022/06/04 07:16:25;;;;;;;7.15;3.00;;;;;;;15.06;43.41;101260.25;5101360;28;20047;-67
2022/06/04 07:18:52;;;;;;;5.97;2.88;;;;;;;14.99;43.39;101265.53;5099339;28;20115;-69
2022/06/04 07:21:19;;;;;;;9.73;2.72;;;;;;;14.94;43.25;101262.50;5100130;28;20112;-68
2022/06/04 07:23:47;;;;;;;8.90;3.20;;;;;;;15.01;43.59;101270.72;5100587;28;20462;-69
2022/06/04 07:26:14;;;;;;;9.60;3.60;;;;;;;14.93;43.23;101268.91;5098799;28;20121;-66
2022/06/04 07:28:41;;;;;;;9.20;2.97;;;;;;;14.90;43.48;101271.97;5097678;28;20131;-69
2022/06/04 07:31:10;;;;;;;9.27;2.90;;;;;;;14.95;43.40;101264.19;5098988;28;20134;-69
2022/06/04 07:33:37;;;;;;;8.27;2.70;;;;;;;15.03;42.93;101276.81;5102136;28;20062;-68
2022/06/04 07:36:04;;;;;;;4.07;2.60;;;;;;;15.04;42.77;101280.34;5101873;28;20059;-68
2022/06/04 07:38:30;;;;;;;4.82;2.25;;;;;;;15.09;42.54;101280.69;5100022;28;20048;-67
2022/06/04 07:40:57;;;;;;;7.70;2.30;;;;;;;15.09;42.85;101286.09;5101633;28;20039;-69
2022/06/04 07:43:25;;;;;;;5.97;2.85;;;;;;;15.00;42.41;101279.88;5100426;28;20048;-69
2022/06/04 07:45:51;;;;;;;4.43;2.42;;;;;;;15.03;42.66;101287.63;5100141;28;20135;-68
2022/06/04 07:48:18;;;;;;;3.75;2.05;;;;;;;15.02;42.57;101285.94;5100534;28;20543;-68
2022/06/04 07:50:50;;;;;;;3.85;2.00;;;;;;;14.74;42.56;101297.19;5100768;28;20052;-68
2022/06/04 07:53:16;;;;;;;10.57;2.83;;;;;;;14.83;42.93;101297.16;5099322;28;20083;-69
2022/06/04 07:55:43;;;;;;;8.82;2.60;;;;;;;14.76;42.37;101300.56;5082164;28;20044;-69
2022/06/04 07:58:10;;;;;;;4.63;2.40;;;;;;;14.72;42.96;101307.31;5102149;28;20070;-69
2022/06/04 08:00:38;;;;;;;9.05;2.67;;;;;;;14.79;42.77;101306.63;5100744;28;20139;-68
2022/06/04 08:03:07;;;;;;;6.65;2.10;;;;;;;14.90;42.43;101308.94;5100870;28;20060;-68
2022/06/04 08:05:35;;;;;;;3.85;2.10;;;;;;;14.94;41.88;101304.88;5101256;28;20044;-67
2022/06/04 08:08:08;;;;;;;10.50;2.35;;;;;;;14.85;41.71;101306.78;5083131;28;20047;-67
2022/06/04 08:10:35;;;;;;;12.45;2.63;;;;;;;14.94;41.88;101310.28;5099924;28;20048;-67
2022/06/04 08:13:01;;;;;;;4.95;2.38;;;;;;;14.97;41.42;101312.63;5099866;28;20132;-68
2022/06/04 08:15:28;;;;;;;7.10;1.88;;;;;;;14.93;41.73;101306.75;5098804;28;20078;-67
2022/06/04 08:17:55;;;;;;;8.52;2.63;;;;;;;15.02;41.46;101312.97;5098462;28;20153;-68
2022/06/04 08:20:21;;;;;;;5.45;2.00;;;;;;;14.99;40.97;101318.72;5098434;28;20086;-67
2022/06/04 08:22:49;;;;;;;4.93;2.08;;;;;;;14.86;41.50;101323.81;5116484;28;20055;-67
2022/06/04 08:25:16;;;;;;;14.32;2.80;;;;;;;14.91;41.80;101326.84;5119009;28;20056;-67
2022/06/04 08:27:44;;;;;;;6.63;2.33;;;;;;;15.00;41.40;101321.25;5118662;28;20044;-68
2022/06/04 08:30:13;;;;;;;8.18;2.08;;;;;;;15.10;41.51;101328.31;5101885;28;20063;-70
2022/06/04 08:32:40;;;;;;;5.50;1.85;;;;;;;15.08;40.98;101325.75;5101136;28;20117;-69
2022/06/04 08:35:07;;;;;;;5.90;2.20;;;;;;;15.11;41.08;101322.72;5120171;28;20059;-70
2022/06/04 08:37:34;;;;;;;6.38;1.77;;;;;;;15.16;41.17;101323.03;5119820;28;20089;-70
2022/06/04 08:40:01;;;;;;;7.10;2.30;;;;;;;15.13;41.07;101319.84;5120425;28;20040;-69
2022/06/04 08:42:50;;;;;;;7.03;1.90;;;;;;;15.11;41.03;101328.13;5120343;28;20177;-70
2022/06/04 08:45:17;;;;;;;5.35;1.98;;;;;;;15.17;40.92;101321.19;5121917;28;20518;-68
2022/06/04 08:47:49;;;;;;;9.75;2.28;;;;;;;15.33;41.29;101325.66;5120004;28;20048;-70
2022/06/04 08:50:20;;;;;;;7.43;2.22;;;;;;;15.33;40.78;101326.50;5118803;28;20453;-69
2022/06/04 08:52:52;;;;;;;7.57;2.08;;;;;;;15.38;40.45;101324.09;5118304;28;20082;-69
2022/06/04 08:59:01;;;;;;;3.55;1.48;;;;;;;15.66;39.96;101321.78;5058170;28;20049;-71
2022/06/04 09:01:41;;;;;;;2.67;1.55;;;;;;;15.82;39.54;101328.09;5057054;28;20045;-68
2022/06/04 09:04:36;;;;;;;8.18;1.95;;;;;;;16.06;39.32;101330.63;5057548;28;20069;-69
2022/06/04 09:07:02;;;;;;;5.75;1.55;;;;;;;16.24;39.26;101326.75;5057498;28;20512;-69
2022/06/04 09:09:39;;;;;;;3.85;1.60;;;;;;;16.25;38.95;101331.13;5055705;28;20465;-70
2022/06/04 09:12:27;;;;;;;6.00;1.80;;;;;;;16.31;38.71;101330.41;5055712;28;20084;-69
2022/06/04 09:14:57;;;;;;;7.32;1.73;;;;;;;16.38;38.48;101336.78;5056210;28;20053;-68
2022/06/04 09:17:38;;;;;;;3.38;1.60;;;;;;;16.39;38.69;101336.56;5055772;28;20155;-69
2022/06/04 09:20:15;;;;;;;2.83;1.40;;;;;;;16.39;38.68;101338.44;5056687;28;20117;-68
2022/06/04 09:22:44;;;;;;;5.00;2.08;;;;;;;16.38;39.12;101343.03;5054867;28;20052;-69
2022/06/04 09:25:13;;;;;;;4.72;1.83;;;;;;;16.46;39.02;101346.69;5056255;28;20076;-69
2022/06/04 09:27:49;;;;;;;11.25;1.85;;;;;;;16.47;39.06;101346.50;5057002;28;20136;-69
2022/06/04 09:30:39;;;;;;;6.60;1.70;;;;;;;16.58;38.83;101348.78;5110337;28;20044;-68
2022/06/04 09:33:32;;;;;;;6.93;1.70;;;;;;;16.72;38.81;101349.00;5100397;28;20077;-69
2022/06/04 09:35:59;;;;;;;6.63;1.65;;;;;;;17.00;38.80;101352.75;5120796;28;20056;-68
2022/06/04 09:38:32;;;;;;;5.20;1.80;;;;;;;16.94;38.68;101348.06;5118334;28;20043;-68
2022/06/04 09:41:05;;;;;;;8.70;1.63;;;;;;;16.96;37.79;101351.44;5118821;28;20158;-67
2022/06/04 09:43:32;;;;;;;5.30;1.55;;;;;;;17.07;37.77;101364.50;5117443;28;20086;-68
2022/06/04 09:46:04;;;;;;;;;;;;;;;17.04;37.97;101359.47;5120511;28;20083;-67
2022/06/04 09:48:37;;;;;;;3.92;1.40;;;;;;;17.01;38.27;101359.00;5119513;28;19920;-67
2022/06/04 09:51:15;;;;;;;4.10;1.60;;;;;;;17.01;38.61;101362.53;5101591;28;20040;-68
2022/06/04 09:53:44;;;;;;;4.45;1.92;;;;;;;17.17;38.21;101357.97;5119379;28;20522;-67
2022/06/04 09:56:14;;;;;;;6.35;1.80;;;;;;;17.05;38.33;101363.84;5118935;28;20051;-67
2022/06/04 09:58:46;;;;;;;7.45;1.75;;;;;;;16.90;38.30;101373.88;5118922;28;20411;-69
2022/06/04 10:01:16;;;;;;;7.95;2.17;;;;;;;16.84;38.67;101363.75;5118749;28;20100;-68
2022/06/04 10:03:45;;;;;;;2.65;1.65;;;;;;;16.96;39.02;101369.56;5118553;28;20071;-69
2022/06/04 10:06:16;;;;;;;10.70;2.05;;;;;;;16.99;39.03;101377.31;5119912;28;20055;-70
2022/06/04 10:11:48;;;;;;;8.65;1.92;;;;;;;16.79;39.06;101368.91;5118399;28;20510;-67
2022/06/04 10:14:15;;;;;;;5.90;1.75;;;;;;;16.96;38.98;101381.25;5119268;28;20047;-66
2022/06/04 10:16:45;;;;;;;4.65;1.88;;;;;;;17.14;38.99;101373.56;5118418;28;20104;-68
2022/06/04 10:19:22;;;;;;;5.13;1.60;;;;;;;17.42;38.56;101372.94;5119403;28;20495;-68
2022/06/04 10:22:11;;;;;;;7.00;1.60;;;;;;;17.51;37.94;101371.81;5118801;28;20082;-67
2022/06/04 10:24:52;;;;;;;3.05;1.63;;;;;;;17.50;38.19;101374.69;5120151;28;20079;-67
2022/06/04 10:27:27;;;;;;;3.22;1.70;;;;;;;17.54;38.07;101368.69;5117816;28;20114;-67
2022/06/04 10:30:37;;;;;;;6.30;1.67;;;;;;;17.55;38.25;101367.66;5118852;28;20419;-68
2022/06/04 10:33:26;;;;;;;5.38;2.22;;;;;;;17.69;38.13;101363.22;5063504;28;20040;-69
2022/06/04 10:36:09;;;;;;;9.88;1.98;;;;;;;17.59;37.99;101358.09;5117121;28;20052;-69
2022/06/04 10:39:01;;;;;;;2.58;1.52;;;;;;;17.44;37.91;101354.59;5117938;28;20497;-68
2022/06/04 10:41:40;;;;;;;;;;;;;;;17.55;37.98;101351.38;5116964;28;20044;-71
2022/06/04 10:44:13;;;;;;;2.95;1.75;;;;;;;17.63;37.74;101350.44;5116381;28;19927;-72
2022/06/04 10:46:39;;;;;;;4.40;2.03;;;;;;;17.70;38.24;101351.34;5115136;28;20052;-71
2022/06/04 10:49:09;;;;;;;4.55;1.80;;;;;;;17.71;37.84;101349.47;5116116;28;20082;-70
2022/06/04 10:52:17;;;;;;;5.47;1.75;;;;;;;17.92;37.74;101345.91;5115763;28;20063;-71
2022/06/04 10:54:59;;;;;;;6.47;1.80;;;;;;;18.23;37.50;101332.03;5064910;28;20086;-71
2022/06/04 10:57:28;;;;;;;2.92;1.50;;;;;;;18.55;36.16;101328.75;5119376;28;20075;-71
2022/06/04 11:00:10;;;;;;;7.93;1.90;;;;;;;18.62;36.19;101320.66;5121298;28;20141;-71
2022/06/04 11:02:42;;;;;;;5.63;1.80;;;;;;;18.46;35.86;101319.06;5118803;28;20075;-70
2022/06/04 11:05:24;;;;;;;4.32;2.30;;;;;;;18.53;36.02;101328.09;5122282;28;20087;-71
2022/06/04 11:08:10;;;;;;;5.47;1.70;;;;;;;18.68;35.74;101327.16;5120506;28;20078;-71
2022/06/04 11:10:49;;;;;;;5.15;1.63;;;;;;;18.78;35.44;101330.34;5119758;28;20495;-71
2022/06/04 11:13:22;;;;;;;2.25;1.35;;;;;;;18.95;35.09;101325.47;5122260;28;20055;-71
2022/06/04 11:16:13;;;;;;;4.63;1.40;;;;;;;19.20;34.92;101332.06;5122388;28;20047;-71
2022/06/04 11:18:50;;;;;;;2.45;1.50;;;;;;;19.29;35.30;101321.84;5123112;28;20052;-68
2022/06/04 11:21:40;;;;;;;3.85;1.50;;;;;;;19.26;35.03;101324.97;5119177;28;20138;-69
2022/06/04 11:24:16;;;;;;;4.57;1.65;;;;;;;19.14;34.99;101323.88;5119930;28;20116;-69
2022/06/04 11:26:55;;;;;;;10.10;1.75;;;;;;;18.99;35.43;101333.00;5119270;28;20047;-69
2022/06/04 11:29:22;;;;;;;1.55;1.15;;;;;;;19.18;35.32;101320.56;5119403;28;20083;-70
2022/06/04 11:32:03;;;;;;;10.85;2.10;;;;;;;19.24;35.50;101325.19;5122316;28;20502;-69
2022/06/04 11:34:50;;;;;;;4.55;2.22;;;;;;;19.34;34.82;101318.50;5121231;28;20114;-69
2022/06/04 11:37:45;;;;;;;6.07;1.60;;;;;;;19.32;35.10;101326.06;5122792;28;20467;-69
2022/06/04 11:43:11;;;;;;;2.83;1.45;;;;;;;19.26;34.88;101333.97;5099670;22;20084;-68
2022/06/04 11:45:47;;;;;;;9.18;1.50;;;;;;;19.23;35.36;101334.38;5037798;28;20080;-68
2022/06/04 11:48:36;;;;;;;5.00;1.73;;;;;;;18.93;35.16;101339.25;5037097;28;20049;-68
2022/06/04 11:51:11;;;;;;;6.35;1.60;;;;;;;18.58;35.83;101341.06;5037238;28;20084;-67
2022/06/04 11:54:01;;;;;;;3.65;1.75;;;;;;;18.78;35.81;101341.22;5037273;28;20145;-67
2022/06/04 11:56:59;;;;;;;11.18;1.88;;;;;;;18.87;35.68;101334.59;5036585;28;20136;-67
2022/06/04 11:59:31;;;;;;;5.20;1.42;;;;;;;19.10;35.20;101345.19;5036277;28;20088;-68
2022/06/04 12:02:13;;;;;;;4.07;1.40;;;;;;;19.25;34.72;101347.78;5035972;28;20095;-66
2022/06/04 12:04:45;;;;;;;3.40;1.70;;;;;;;19.38;34.55;101342.41;5035995;28;20046;-69
2022/06/04 12:07:40;;;;;;;2.55;1.70;;;;;;;19.47;35.30;101346.59;5035294;28;20427;-67